sensor_id;sensor_type;location;lat;lon;timestamp;temperature;humidity
40556;DHT22;26250;45.422;11.100;2022-07-06T00:01:18;27.90;54.50
40556;DHT22;26250;45.422;11.100;2022-07-06T00:03:46;27.90;55.20
40556;DHT22;26250;45.422;11.100;2022-07-06T00:06:20;27.80;55.50
40556;DHT22;26250;45.422;11.100;2022-07-06T00:08:47;27.70;55.90
40556;DHT22;26250;45.422;11.100;2022-07-06T00:11:14;27.70;56.30
40556;DHT22;26250;45.422;11.100;2022-07-06T00:13:41;27.70;57.00
40556;DHT22;26250;45.422;11.100;2022-07-06T00:16:08;27.70;57.40
40556;DHT22;26250;45.422;11.100;2022-07-06T00:18:35;27.60;58.30
40556;DHT22;26250;45.422;11.100;2022-07-06T00:21:02;27.60;58.50
40556;DHT22;26250;45.422;11.100;2022-07-06T00:23:29;27.70;58.70
40556;DHT22;26250;45.422;11.100;2022-07-06T00:25:56;27.60;59.10
40556;DHT22;26250;45.422;11.100;2022-07-06T00:28:23;27.60;58.90
40556;DHT22;26250;45.422;11.100;2022-07-06T00:30:52;27.50;59.80
40556;DHT22;26250;45.422;11.100;2022-07-06T00:33:20;27.40;60.60
40556;DHT22;26250;45.422;11.100;2022-07-06T00:35:47;27.40;61.10
40556;DHT22;26250;45.422;11.100;2022-07-06T00:38:14;27.30;61.70
40556;DHT22;26250;45.422;11.100;2022-07-06T00:40:41;27.20;61.80
40556;DHT22;26250;45.422;11.100;2022-07-06T00:43:08;27.20;61.80
40556;DHT22;26250;45.422;11.100;2022-07-06T00:45:35;27.20;62.20
40556;DHT22;26250;45.422;11.100;2022-07-06T00:48:02;27.20;62.30
40556;DHT22;26250;45.422;11.100;2022-07-06T00:50:30;27.10;62.40
40556;DHT22;26250;45.422;11.100;2022-07-06T00:53:04;27.10;62.60
40556;DHT22;26250;45.422;11.100;2022-07-06T00:55:34;27.20;62.00
40556;DHT22;26250;45.422;11.100;2022-07-06T00:58:03;27.20;62.20
40556;DHT22;26250;45.422;11.100;2022-07-06T01:00:32;27.20;62.40
40556;DHT22;26250;45.422;11.100;2022-07-06T01:02:59;27.20;62.40
40556;DHT22;26250;45.422;11.100;2022-07-06T01:05:26;27.20;62.20
40556;DHT22;26250;45.422;11.100;2022-07-06T01:07:53;27.20;62.00
40556;DHT22;26250;45.422;11.100;2022-07-06T01:10:21;27.30;62.10
40556;DHT22;26250;45.422;11.100;2022-07-06T01:12:49;27.30;62.00
40556;DHT22;26250;45.422;11.100;2022-07-06T01:15:19;27.40;61.60
40556;DHT22;26250;45.422;11.100;2022-07-06T01:17:47;27.40;61.60
40556;DHT22;26250;45.422;11.100;2022-07-06T01:20:20;27.30;61.80
40556;DHT22;26250;45.422;11.100;2022-07-06T01:22:48;27.30;61.60
40556;DHT22;26250;45.422;11.100;2022-07-06T01:25:16;27.40;61.50
40556;DHT22;26250;45.422;11.100;2022-07-06T01:27:43;27.40;61.30
40556;DHT22;26250;45.422;11.100;2022-07-06T01:30:19;27.40;60.80
40556;DHT22;26250;45.422;11.100;2022-07-06T01:32:46;27.50;60.50
40556;DHT22;26250;45.422;11.100;2022-07-06T01:35:15;27.70;60.40
40556;DHT22;26250;45.422;11.100;2022-07-06T01:37:43;27.70;60.30
40556;DHT22;26250;45.422;11.100;2022-07-06T01:40:11;27.50;61.00
40556;DHT22;26250;45.422;11.100;2022-07-06T01:42:40;27.40;61.10
40556;DHT22;26250;45.422;11.100;2022-07-06T01:45:08;27.30;61.60
40556;DHT22;26250;45.422;11.100;2022-07-06T01:47:37;27.10;61.80
40556;DHT22;26250;45.422;11.100;2022-07-06T01:50:06;27.10;61.80
40556;DHT22;26250;45.422;11.100;2022-07-06T01:52:37;27.00;62.40
40556;DHT22;26250;45.422;11.100;2022-07-06T01:55:05;26.90;62.30
40556;DHT22;26250;45.422;11.100;2022-07-06T01:57:34;26.90;62.10
40556;DHT22;26250;45.422;11.100;2022-07-06T02:00:01;26.90;62.40
40556;DHT22;26250;45.422;11.100;2022-07-06T02:02:38;26.80;62.10
40556;DHT22;26250;45.422;11.100;2022-07-06T02:05:07;26.90;62.00
40556;DHT22;26250;45.422;11.100;2022-07-06T02:07:35;26.70;62.10
40556;DHT22;26250;45.422;11.100;2022-07-06T02:10:03;26.70;62.40
40556;DHT22;26250;45.422;11.100;2022-07-06T02:12:30;26.60;62.40
40556;DHT22;26250;45.422;11.100;2022-07-06T02:14:57;26.50;62.70
40556;DHT22;26250;45.422;11.100;2022-07-06T02:17:24;26.60;61.50
40556;DHT22;26250;45.422;11.100;2022-07-06T02:19:51;26.60;61.80
40556;DHT22;26250;45.422;11.100;2022-07-06T02:22:18;26.60;61.70
40556;DHT22;26250;45.422;11.100;2022-07-06T02:24:44;26.60;61.90
40556;DHT22;26250;45.422;11.100;2022-07-06T02:27:11;26.50;61.80
40556;DHT22;26250;45.422;11.100;2022-07-06T02:29:38;26.50;61.70
40556;DHT22;26250;45.422;11.100;2022-07-06T02:32:07;26.50;61.80
40556;DHT22;26250;45.422;11.100;2022-07-06T02:34:34;26.50;61.70
40556;DHT22;26250;45.422;11.100;2022-07-06T02:37:01;26.60;61.80
40556;DHT22;26250;45.422;11.100;2022-07-06T02:39:29;26.60;61.10
40556;DHT22;26250;45.422;11.100;2022-07-06T02:41:56;26.60;61.40
40556;DHT22;26250;45.422;11.100;2022-07-06T02:44:24;26.50;61.00
40556;DHT22;26250;45.422;11.100;2022-07-06T02:46:52;26.50;61.20
40556;DHT22;26250;45.422;11.100;2022-07-06T02:49:19;26.50;60.50
40556;DHT22;26250;45.422;11.100;2022-07-06T02:51:50;26.50;60.70
40556;DHT22;26250;45.422;11.100;2022-07-06T02:54:17;26.60;61.20
40556;DHT22;26250;45.422;11.100;2022-07-06T02:56:44;26.60;60.60
40556;DHT22;26250;45.422;11.100;2022-07-06T02:59:14;26.60;60.60
40556;DHT22;26250;45.422;11.100;2022-07-06T03:01:42;26.60;60.50
40556;DHT22;26250;45.422;11.100;2022-07-06T03:04:10;26.60;60.70
40556;DHT22;26250;45.422;11.100;2022-07-06T03:06:37;26.60;61.30
40556;DHT22;26250;45.422;11.100;2022-07-06T03:09:05;26.50;62.20
40556;DHT22;26250;45.422;11.100;2022-07-06T03:11:33;26.40;62.80
40556;DHT22;26250;45.422;11.100;2022-07-06T03:14:04;26.40;62.90
40556;DHT22;26250;45.422;11.100;2022-07-06T03:16:34;26.40;62.80
40556;DHT22;26250;45.422;11.100;2022-07-06T03:19:01;26.30;63.00
40556;DHT22;26250;45.422;11.100;2022-07-06T03:21:28;26.30;63.10
40556;DHT22;26250;45.422;11.100;2022-07-06T03:23:56;26.30;63.20
40556;DHT22;26250;45.422;11.100;2022-07-06T03:26:24;26.30;63.00
40556;DHT22;26250;45.422;11.100;2022-07-06T03:28:51;26.40;62.90
40556;DHT22;26250;45.422;11.100;2022-07-06T03:31:19;26.40;62.90
40556;DHT22;26250;45.422;11.100;2022-07-06T03:33:46;26.40;62.70
40556;DHT22;26250;45.422;11.100;2022-07-06T03:36:13;26.30;62.50
40556;DHT22;26250;45.422;11.100;2022-07-06T03:38:40;26.30;62.50
40556;DHT22;26250;45.422;11.100;2022-07-06T03:41:08;26.30;62.00
40556;DHT22;26250;45.422;11.100;2022-07-06T03:43:35;26.30;61.40
40556;DHT22;26250;45.422;11.100;2022-07-06T03:46:02;26.40;61.30
40556;DHT22;26250;45.422;11.100;2022-07-06T03:48:30;26.50;60.50
40556;DHT22;26250;45.422;11.100;2022-07-06T03:50:57;26.50;60.70
40556;DHT22;26250;45.422;11.100;2022-07-06T03:53:24;26.40;60.40
40556;DHT22;26250;45.422;11.100;2022-07-06T03:55:51;26.50;60.20
40556;DHT22;26250;45.422;11.100;2022-07-06T03:58:38;26.50;60.00
40556;DHT22;26250;45.422;11.100;2022-07-06T04:01:06;26.60;59.90
40556;DHT22;26250;45.422;11.100;2022-07-06T04:03:33;26.50;59.90
40556;DHT22;26250;45.422;11.100;2022-07-06T04:06:02;26.50;60.00
40556;DHT22;26250;45.422;11.100;2022-07-06T04:08:29;26.50;60.10
40556;DHT22;26250;45.422;11.100;2022-07-06T04:10:57;26.50;60.40
40556;DHT22;26250;45.422;11.100;2022-07-06T04:13:25;26.50;60.90
40556;DHT22;26250;45.422;11.100;2022-07-06T04:15:52;26.60;61.00
40556;DHT22;26250;45.422;11.100;2022-07-06T04:18:20;26.50;61.10
40556;DHT22;26250;45.422;11.100;2022-07-06T04:20:51;26.50;61.40
40556;DHT22;26250;45.422;11.100;2022-07-06T04:23:18;26.50;61.50
40556;DHT22;26250;45.422;11.100;2022-07-06T04:25:45;26.50;61.30
40556;DHT22;26250;45.422;11.100;2022-07-06T04:28:14;26.60;61.20
40556;DHT22;26250;45.422;11.100;2022-07-06T04:30:41;26.60;61.30
40556;DHT22;26250;45.422;11.100;2022-07-06T04:33:12;26.60;61.00
40556;DHT22;26250;45.422;11.100;2022-07-06T04:35:42;26.60;61.00
40556;DHT22;26250;45.422;11.100;2022-07-06T04:38:09;26.70;60.60
40556;DHT22;26250;45.422;11.100;2022-07-06T04:40:37;26.80;60.70
40556;DHT22;26250;45.422;11.100;2022-07-06T04:43:09;26.80;60.70
40556;DHT22;26250;45.422;11.100;2022-07-06T04:45:37;26.70;60.60
40556;DHT22;26250;45.422;11.100;2022-07-06T04:48:04;26.70;60.60
40556;DHT22;26250;45.422;11.100;2022-07-06T04:50:32;26.80;60.30
40556;DHT22;26250;45.422;11.100;2022-07-06T04:53:08;26.90;60.10
40556;DHT22;26250;45.422;11.100;2022-07-06T04:55:35;26.90;60.00
40556;DHT22;26250;45.422;11.100;2022-07-06T04:58:02;27.00;59.80
40556;DHT22;26250;45.422;11.100;2022-07-06T05:00:30;27.00;59.50
40556;DHT22;26250;45.422;11.100;2022-07-06T05:03:00;27.00;59.50
40556;DHT22;26250;45.422;11.100;2022-07-06T05:05:27;27.00;59.60
40556;DHT22;26250;45.422;11.100;2022-07-06T05:07:54;27.10;59.10
40556;DHT22;26250;45.422;11.100;2022-07-06T05:10:21;27.10;59.20
40556;DHT22;26250;45.422;11.100;2022-07-06T05:12:54;27.20;59.00
40556;DHT22;26250;45.422;11.100;2022-07-06T05:15:22;27.30;58.70
40556;DHT22;26250;45.422;11.100;2022-07-06T05:17:49;27.30;58.60
40556;DHT22;26250;45.422;11.100;2022-07-06T05:20:17;27.40;58.30
40556;DHT22;26250;45.422;11.100;2022-07-06T05:22:47;27.40;58.00
40556;DHT22;26250;45.422;11.100;2022-07-06T05:25:17;27.50;57.70
40556;DHT22;26250;45.422;11.100;2022-07-06T05:27:44;27.40;57.50
40556;DHT22;26250;45.422;11.100;2022-07-06T05:30:12;27.40;57.60
40556;DHT22;26250;45.422;11.100;2022-07-06T05:32:39;27.40;57.30
40556;DHT22;26250;45.422;11.100;2022-07-06T05:35:07;27.40;57.00
40556;DHT22;26250;45.422;11.100;2022-07-06T05:37:54;27.40;57.20
40556;DHT22;26250;45.422;11.100;2022-07-06T05:40:22;27.40;57.00
40556;DHT22;26250;45.422;11.100;2022-07-06T05:42:50;27.60;56.80
40556;DHT22;26250;45.422;11.100;2022-07-06T05:45:18;27.60;56.00
40556;DHT22;26250;45.422;11.100;2022-07-06T05:47:45;27.70;56.10
40556;DHT22;26250;45.422;11.100;2022-07-06T05:50:34;27.60;56.10
40556;DHT22;26250;45.422;11.100;2022-07-06T05:53:04;27.60;56.00
40556;DHT22;26250;45.422;11.100;2022-07-06T05:55:44;27.60;56.00
40556;DHT22;26250;45.422;11.100;2022-07-06T05:58:12;27.60;56.20
40556;DHT22;26250;45.422;11.100;2022-07-06T06:00:42;27.70;56.10
40556;DHT22;26250;45.422;11.100;2022-07-06T06:03:15;27.80;55.90
40556;DHT22;26250;45.422;11.100;2022-07-06T06:05:42;27.80;55.60
40556;DHT22;26250;45.422;11.100;2022-07-06T06:08:11;27.80;55.40
40556;DHT22;26250;45.422;11.100;2022-07-06T06:10:38;27.90;55.40
40556;DHT22;26250;45.422;11.100;2022-07-06T06:13:08;27.90;55.20
40556;DHT22;26250;45.422;11.100;2022-07-06T06:15:36;27.90;55.10
40556;DHT22;26250;45.422;11.100;2022-07-06T06:18:04;28.00;56.40
40556;DHT22;26250;45.422;11.100;2022-07-06T06:20:31;27.90;57.50
40556;DHT22;26250;45.422;11.100;2022-07-06T06:22:59;27.90;57.50
40556;DHT22;26250;45.422;11.100;2022-07-06T06:25:31;28.00;57.30
40556;DHT22;26250;45.422;11.100;2022-07-06T06:27:58;28.00;57.20
40556;DHT22;26250;45.422;11.100;2022-07-06T06:30:25;28.10;56.70
40556;DHT22;26250;45.422;11.100;2022-07-06T06:33:24;28.20;56.50
40556;DHT22;26250;45.422;11.100;2022-07-06T06:35:52;28.50;55.10
40556;DHT22;26250;45.422;11.100;2022-07-06T06:38:22;28.70;54.90
40556;DHT22;26250;45.422;11.100;2022-07-06T06:40:55;28.70;56.60
40556;DHT22;26250;45.422;11.100;2022-07-06T06:43:22;28.70;57.70
40556;DHT22;26250;45.422;11.100;2022-07-06T06:46:12;28.60;58.40
40556;DHT22;26250;45.422;11.100;2022-07-06T06:48:39;28.60;58.30
40556;DHT22;26250;45.422;11.100;2022-07-06T06:51:06;28.60;58.30
40556;DHT22;26250;45.422;11.100;2022-07-06T06:53:33;28.60;57.80
40556;DHT22;26250;45.422;11.100;2022-07-06T06:56:05;28.50;58.00
40556;DHT22;26250;45.422;11.100;2022-07-06T06:58:32;28.50;56.90
40556;DHT22;26250;45.422;11.100;2022-07-06T07:01:19;28.60;56.00
40556;DHT22;26250;45.422;11.100;2022-07-06T07:03:46;28.70;55.20
40556;DHT22;26250;45.422;11.100;2022-07-06T07:06:13;28.80;54.20
40556;DHT22;26250;45.422;11.100;2022-07-06T07:08:40;29.10;53.90
40556;DHT22;26250;45.422;11.100;2022-07-06T07:11:07;29.40;53.20
40556;DHT22;26250;45.422;11.100;2022-07-06T07:13:34;29.50;52.90
40556;DHT22;26250;45.422;11.100;2022-07-06T07:16:01;29.50;53.10
40556;DHT22;26250;45.422;11.100;2022-07-06T07:18:28;29.60;52.50
40556;DHT22;26250;45.422;11.100;2022-07-06T07:20:56;29.70;52.30
40556;DHT22;26250;45.422;11.100;2022-07-06T07:23:23;29.90;51.90
40556;DHT22;26250;45.422;11.100;2022-07-06T07:25:50;30.00;51.80
40556;DHT22;26250;45.422;11.100;2022-07-06T07:28:17;30.10;50.60
40556;DHT22;26250;45.422;11.100;2022-07-06T07:30:44;30.20;50.50
40556;DHT22;26250;45.422;11.100;2022-07-06T07:33:10;30.10;49.70
40556;DHT22;26250;45.422;11.100;2022-07-06T07:35:38;30.00;50.60
40556;DHT22;26250;45.422;11.100;2022-07-06T07:38:05;30.00;50.70
40556;DHT22;26250;45.422;11.100;2022-07-06T07:40:32;29.80;50.80
40556;DHT22;26250;45.422;11.100;2022-07-06T07:43:00;29.80;50.40
40556;DHT22;26250;45.422;11.100;2022-07-06T07:45:27;30.00;50.10
40556;DHT22;26250;45.422;11.100;2022-07-06T07:47:54;30.00;49.70
40556;DHT22;26250;45.422;11.100;2022-07-06T07:50:21;30.10;49.60
40556;DHT22;26250;45.422;11.100;2022-07-06T07:52:49;30.20;49.40
40556;DHT22;26250;45.422;11.100;2022-07-06T07:55:16;30.30;49.30
40556;DHT22;26250;45.422;11.100;2022-07-06T07:58:03;30.40;48.40
40556;DHT22;26250;45.422;11.100;2022-07-06T08:00:31;30.40;48.70
40556;DHT22;26250;45.422;11.100;2022-07-06T08:02:58;30.50;48.70
40556;DHT22;26250;45.422;11.100;2022-07-06T08:05:25;30.60;48.40
40556;DHT22;26250;45.422;11.100;2022-07-06T08:07:51;30.70;48.10
40556;DHT22;26250;45.422;11.100;2022-07-06T08:10:19;30.80;47.60
40556;DHT22;26250;45.422;11.100;2022-07-06T08:12:48;30.80;46.90
40556;DHT22;26250;45.422;11.100;2022-07-06T08:15:16;30.90;47.00
40556;DHT22;26250;45.422;11.100;2022-07-06T08:17:43;31.00;46.90
40556;DHT22;26250;45.422;11.100;2022-07-06T08:20:10;31.00;46.30
40556;DHT22;26250;45.422;11.100;2022-07-06T08:22:37;31.00;45.70
40556;DHT22;26250;45.422;11.100;2022-07-06T08:25:05;31.00;45.90
40556;DHT22;26250;45.422;11.100;2022-07-06T08:27:32;31.00;46.10
40556;DHT22;26250;45.422;11.100;2022-07-06T08:30:04;31.10;46.30
40556;DHT22;26250;45.422;11.100;2022-07-06T08:32:31;31.10;46.40
40556;DHT22;26250;45.422;11.100;2022-07-06T08:35:18;31.20;46.40
40556;DHT22;26250;45.422;11.100;2022-07-06T08:37:44;31.30;46.50
40556;DHT22;26250;45.422;11.100;2022-07-06T08:40:12;31.30;46.60
40556;DHT22;26250;45.422;11.100;2022-07-06T08:42:39;31.30;46.70
40556;DHT22;26250;45.422;11.100;2022-07-06T08:45:07;31.30;46.00
40556;DHT22;26250;45.422;11.100;2022-07-06T08:47:37;31.30;46.40
40556;DHT22;26250;45.422;11.100;2022-07-06T08:50:05;31.40;47.50
40556;DHT22;26250;45.422;11.100;2022-07-06T08:52:32;31.50;47.20
40556;DHT22;26250;45.422;11.100;2022-07-06T08:55:00;31.40;45.90
40556;DHT22;26250;45.422;11.100;2022-07-06T08:57:28;31.30;45.90
40556;DHT22;26250;45.422;11.100;2022-07-06T08:59:55;31.30;45.40
40556;DHT22;26250;45.422;11.100;2022-07-06T09:02:25;31.30;45.60
40556;DHT22;26250;45.422;11.100;2022-07-06T09:04:56;31.30;45.90
40556;DHT22;26250;45.422;11.100;2022-07-06T09:07:28;31.30;45.90
40556;DHT22;26250;45.422;11.100;2022-07-06T09:10:17;31.30;45.50
40556;DHT22;26250;45.422;11.100;2022-07-06T09:12:46;31.40;45.60
40556;DHT22;26250;45.422;11.100;2022-07-06T09:15:13;31.50;45.50
40556;DHT22;26250;45.422;11.100;2022-07-06T09:17:42;31.50;45.80
40556;DHT22;26250;45.422;11.100;2022-07-06T09:20:12;31.50;45.70
40556;DHT22;26250;45.422;11.100;2022-07-06T09:22:40;31.50;45.60
40556;DHT22;26250;45.422;11.100;2022-07-06T09:25:12;31.60;45.70
40556;DHT22;26250;45.422;11.100;2022-07-06T09:27:43;31.60;45.40
40556;DHT22;26250;45.422;11.100;2022-07-06T09:30:14;31.60;45.50
40556;DHT22;26250;45.422;11.100;2022-07-06T09:32:46;31.60;45.50
40556;DHT22;26250;45.422;11.100;2022-07-06T09:35:26;31.70;44.80
40556;DHT22;26250;45.422;11.100;2022-07-06T09:38:13;31.70;44.90
40556;DHT22;26250;45.422;11.100;2022-07-06T09:40:42;31.60;45.40
40556;DHT22;26250;45.422;11.100;2022-07-06T09:43:21;31.60;44.60
40556;DHT22;26250;45.422;11.100;2022-07-06T09:45:55;31.70;44.40
40556;DHT22;26250;45.422;11.100;2022-07-06T09:48:27;31.80;43.80
40556;DHT22;26250;45.422;11.100;2022-07-06T09:50:59;31.70;44.10
40556;DHT22;26250;45.422;11.100;2022-07-06T09:53:29;31.80;44.10
40556;DHT22;26250;45.422;11.100;2022-07-06T09:55:57;31.80;42.50
40556;DHT22;26250;45.422;11.100;2022-07-06T09:58:28;31.90;42.60
40556;DHT22;26250;45.422;11.100;2022-07-06T10:01:28;32.00;43.50
40556;DHT22;26250;45.422;11.100;2022-07-06T10:03:57;32.00;43.60
40556;DHT22;26250;45.422;11.100;2022-07-06T10:06:25;32.00;44.40
40556;DHT22;26250;45.422;11.100;2022-07-06T10:08:54;32.10;43.00
40556;DHT22;26250;45.422;11.100;2022-07-06T10:11:22;32.10;43.10
40556;DHT22;26250;45.422;11.100;2022-07-06T10:13:57;32.10;43.70
40556;DHT22;26250;45.422;11.100;2022-07-06T10:16:25;32.10;42.90
40556;DHT22;26250;45.422;11.100;2022-07-06T10:18:52;32.10;43.00
40556;DHT22;26250;45.422;11.100;2022-07-06T10:21:22;32.10;43.40
40556;DHT22;26250;45.422;11.100;2022-07-06T10:23:50;32.10;43.50
40556;DHT22;26250;45.422;11.100;2022-07-06T10:26:18;32.10;43.70
40556;DHT22;26250;45.422;11.100;2022-07-06T10:28:45;32.10;43.20
40556;DHT22;26250;45.422;11.100;2022-07-06T10:31:18;32.20;43.60
40556;DHT22;26250;45.422;11.100;2022-07-06T10:33:46;32.30;43.70
40556;DHT22;26250;45.422;11.100;2022-07-06T10:36:14;32.30;43.70
40556;DHT22;26250;45.422;11.100;2022-07-06T10:38:48;32.30;43.90
40556;DHT22;26250;45.422;11.100;2022-07-06T10:41:16;32.30;44.00
40556;DHT22;26250;45.422;11.100;2022-07-06T10:43:45;32.40;43.90
40556;DHT22;26250;45.422;11.100;2022-07-06T10:46:16;32.30;44.70
40556;DHT22;26250;45.422;11.100;2022-07-06T10:48:48;32.30;43.80
40556;DHT22;26250;45.422;11.100;2022-07-06T10:51:27;32.40;44.10
40556;DHT22;26250;45.422;11.100;2022-07-06T10:53:59;32.50;44.40
40556;DHT22;26250;45.422;11.100;2022-07-06T10:56:38;32.50;42.60
40556;DHT22;26250;45.422;11.100;2022-07-06T10:59:19;32.60;41.60
40556;DHT22;26250;45.422;11.100;2022-07-06T11:02:14;32.50;41.90
40556;DHT22;26250;45.422;11.100;2022-07-06T11:04:43;32.60;42.90
40556;DHT22;26250;45.422;11.100;2022-07-06T11:07:12;32.60;43.50
40556;DHT22;26250;45.422;11.100;2022-07-06T11:09:41;32.70;43.90
40556;DHT22;26250;45.422;11.100;2022-07-06T11:12:18;32.70;43.90
40556;DHT22;26250;45.422;11.100;2022-07-06T11:14:47;32.80;43.70
40556;DHT22;26250;45.422;11.100;2022-07-06T11:17:15;32.80;43.50
40556;DHT22;26250;45.422;11.100;2022-07-06T11:19:56;32.90;43.20
40556;DHT22;26250;45.422;11.100;2022-07-06T11:22:24;32.90;42.80
40556;DHT22;26250;45.422;11.100;2022-07-06T11:24:54;32.80;42.50
40556;DHT22;26250;45.422;11.100;2022-07-06T11:27:23;32.80;42.10
40556;DHT22;26250;45.422;11.100;2022-07-06T11:29:50;32.80;42.10
40556;DHT22;26250;45.422;11.100;2022-07-06T11:32:23;32.70;42.40
40556;DHT22;26250;45.422;11.100;2022-07-06T11:34:51;32.80;42.80
40556;DHT22;26250;45.422;11.100;2022-07-06T11:37:18;32.80;43.30
40556;DHT22;26250;45.422;11.100;2022-07-06T11:39:46;32.80;43.60
40556;DHT22;26250;45.422;11.100;2022-07-06T11:42:17;32.90;43.60
40556;DHT22;26250;45.422;11.100;2022-07-06T11:44:48;32.90;43.60
40556;DHT22;26250;45.422;11.100;2022-07-06T11:47:16;32.90;43.20
40556;DHT22;26250;45.422;11.100;2022-07-06T11:49:51;33.00;43.30
40556;DHT22;26250;45.422;11.100;2022-07-06T11:52:19;33.00;43.30
40556;DHT22;26250;45.422;11.100;2022-07-06T11:54:46;33.10;43.30
40556;DHT22;26250;45.422;11.100;2022-07-06T11:57:13;33.10;42.80
40556;DHT22;26250;45.422;11.100;2022-07-06T11:59:41;33.10;42.50
40556;DHT22;26250;45.422;11.100;2022-07-06T12:02:15;33.00;43.10
40556;DHT22;26250;45.422;11.100;2022-07-06T12:04:45;33.00;42.70
40556;DHT22;26250;45.422;11.100;2022-07-06T12:07:16;32.90;43.10
40556;DHT22;26250;45.422;11.100;2022-07-06T12:09:45;33.00;43.20
40556;DHT22;26250;45.422;11.100;2022-07-06T12:12:13;33.10;43.00
40556;DHT22;26250;45.422;11.100;2022-07-06T12:14:41;33.20;42.20
40556;DHT22;26250;45.422;11.100;2022-07-06T12:17:13;33.20;42.10
40556;DHT22;26250;45.422;11.100;2022-07-06T12:19:41;33.20;42.00
40556;DHT22;26250;45.422;11.100;2022-07-06T12:22:10;33.20;42.20
40556;DHT22;26250;45.422;11.100;2022-07-06T12:24:41;33.20;42.30
40556;DHT22;26250;45.422;11.100;2022-07-06T12:27:15;33.30;42.00
40556;DHT22;26250;45.422;11.100;2022-07-06T12:29:43;33.40;41.90
40556;DHT22;26250;45.422;11.100;2022-07-06T12:32:18;33.40;42.00
40556;DHT22;26250;45.422;11.100;2022-07-06T12:34:45;33.40;41.70
40556;DHT22;26250;45.422;11.100;2022-07-06T12:37:13;33.50;42.30
40556;DHT22;26250;45.422;11.100;2022-07-06T12:39:45;33.40;42.10
40556;DHT22;26250;45.422;11.100;2022-07-06T12:42:13;33.40;42.20
40556;DHT22;26250;45.422;11.100;2022-07-06T12:44:47;33.30;42.20
40556;DHT22;26250;45.422;11.100;2022-07-06T12:47:18;33.30;42.10
40556;DHT22;26250;45.422;11.100;2022-07-06T12:49:45;33.40;42.10
40556;DHT22;26250;45.422;11.100;2022-07-06T12:52:14;33.30;41.90
40556;DHT22;26250;45.422;11.100;2022-07-06T12:54:43;33.30;41.80
40556;DHT22;26250;45.422;11.100;2022-07-06T12:57:18;33.30;42.10
40556;DHT22;26250;45.422;11.100;2022-07-06T12:59:48;33.30;42.50
40556;DHT22;26250;45.422;11.100;2022-07-06T13:05:11;33.50;42.10
40556;DHT22;26250;45.422;11.100;2022-07-06T13:07:44;33.50;41.90
40556;DHT22;26250;45.422;11.100;2022-07-06T13:10:13;33.50;41.70
40556;DHT22;26250;45.422;11.100;2022-07-06T13:12:43;33.50;41.70
40556;DHT22;26250;45.422;11.100;2022-07-06T13:15:10;33.60;41.70
40556;DHT22;26250;45.422;11.100;2022-07-06T13:17:38;33.60;41.60
40556;DHT22;26250;45.422;11.100;2022-07-06T13:20:07;33.50;41.40
40556;DHT22;26250;45.422;11.100;2022-07-06T13:22:36;33.60;41.10
40556;DHT22;26250;45.422;11.100;2022-07-06T13:25:04;33.60;41.10
40556;DHT22;26250;45.422;11.100;2022-07-06T13:27:31;33.60;40.90
40556;DHT22;26250;45.422;11.100;2022-07-06T13:29:58;33.70;41.00
40556;DHT22;26250;45.422;11.100;2022-07-06T13:32:25;33.70;41.00
40556;DHT22;26250;45.422;11.100;2022-07-06T13:34:52;33.60;41.10
40556;DHT22;26250;45.422;11.100;2022-07-06T13:37:20;33.70;41.30
40556;DHT22;26250;45.422;11.100;2022-07-06T13:39:50;33.70;40.70
40556;DHT22;26250;45.422;11.100;2022-07-06T13:42:17;33.70;40.80
40556;DHT22;26250;45.422;11.100;2022-07-06T13:44:44;33.80;41.20
40556;DHT22;26250;45.422;11.100;2022-07-06T13:47:11;33.80;41.00
40556;DHT22;26250;45.422;11.100;2022-07-06T13:49:37;33.80;41.30
40556;DHT22;26250;45.422;11.100;2022-07-06T13:52:05;33.80;41.60
40556;DHT22;26250;45.422;11.100;2022-07-06T13:54:32;33.80;41.00
40556;DHT22;26250;45.422;11.100;2022-07-06T13:57:06;33.90;41.20
40556;DHT22;26250;45.422;11.100;2022-07-06T13:59:33;33.90;41.30
40556;DHT22;26250;45.422;11.100;2022-07-06T14:02:00;34.00;41.40
40556;DHT22;26250;45.422;11.100;2022-07-06T14:04:27;33.90;41.70
40556;DHT22;26250;45.422;11.100;2022-07-06T14:06:54;33.90;40.70
40556;DHT22;26250;45.422;11.100;2022-07-06T14:09:21;33.90;40.80
40556;DHT22;26250;45.422;11.100;2022-07-06T14:11:48;33.90;40.80
40556;DHT22;26250;45.422;11.100;2022-07-06T14:14:15;34.00;40.80
40556;DHT22;26250;45.422;11.100;2022-07-06T14:16:42;34.10;40.80
40556;DHT22;26250;45.422;11.100;2022-07-06T14:19:09;34.00;40.60
40556;DHT22;26250;45.422;11.100;2022-07-06T14:21:46;34.00;40.40
40556;DHT22;26250;45.422;11.100;2022-07-06T14:24:14;33.90;40.30
40556;DHT22;26250;45.422;11.100;2022-07-06T14:26:41;34.00;40.00
40556;DHT22;26250;45.422;11.100;2022-07-06T14:29:08;34.00;40.70
40556;DHT22;26250;45.422;11.100;2022-07-06T14:31:35;34.10;40.00
40556;DHT22;26250;45.422;11.100;2022-07-06T14:34:02;34.10;40.30
40556;DHT22;26250;45.422;11.100;2022-07-06T14:36:29;34.10;40.30
40556;DHT22;26250;45.422;11.100;2022-07-06T14:38:56;34.10;39.90
40556;DHT22;26250;45.422;11.100;2022-07-06T14:41:23;34.10;39.40
40556;DHT22;26250;45.422;11.100;2022-07-06T14:43:50;34.10;39.80
40556;DHT22;26250;45.422;11.100;2022-07-06T14:46:17;34.10;39.60
40556;DHT22;26250;45.422;11.100;2022-07-06T14:48:44;34.10;39.80
40556;DHT22;26250;45.422;11.100;2022-07-06T14:51:11;34.00;39.60
40556;DHT22;26250;45.422;11.100;2022-07-06T14:53:41;34.00;39.00
40556;DHT22;26250;45.422;11.100;2022-07-06T14:56:08;33.90;39.40
40556;DHT22;26250;45.422;11.100;2022-07-06T14:58:35;34.00;39.50
40556;DHT22;26250;45.422;11.100;2022-07-06T15:01:04;34.10;39.40
40556;DHT22;26250;45.422;11.100;2022-07-06T15:03:31;34.10;39.60
40556;DHT22;26250;45.422;11.100;2022-07-06T15:05:58;34.20;40.40
40556;DHT22;26250;45.422;11.100;2022-07-06T15:08:25;34.30;40.00
40556;DHT22;26250;45.422;11.100;2022-07-06T15:10:52;34.30;39.90
40556;DHT22;26250;45.422;11.100;2022-07-06T15:13:19;34.30;39.50
40556;DHT22;26250;45.422;11.100;2022-07-06T15:15:47;34.30;39.60
40556;DHT22;26250;45.422;11.100;2022-07-06T15:18:25;34.30;39.20
40556;DHT22;26250;45.422;11.100;2022-07-06T15:20:52;34.30;39.60
40556;DHT22;26250;45.422;11.100;2022-07-06T15:23:19;34.30;39.20
40556;DHT22;26250;45.422;11.100;2022-07-06T15:25:46;34.30;39.80
40556;DHT22;26250;45.422;11.100;2022-07-06T15:28:24;34.30;39.10
40556;DHT22;26250;45.422;11.100;2022-07-06T15:30:53;34.30;38.60